Home > Products > Valid Products > MTR

000
SAUS43 KUNR 260702 COR
MTRD07
METAR KD07 260656Z AUTO 35020KT M04/M08 A3007 RMK AO1 PK WND
34034/0606 SLP215 T10441078 400331061





000
SAUS43 KUNR 260659 COR
MTRD07
METAR KD07 260656Z AUTO 35020KT M04/M08 A3007 RMK AO1 PK WND
34034/0606 SLP215 T10441078 400331061





000
SAUS43 KUNR 260658
MTR2WX
METAR K2WX 260656Z AUTO 33009KT M03/M06 A3006 RMK AO1 SLP211
T10331061 400391056





000
SAUS43 KUNR 260657
MTRD07
METAR KD07 260656Z AUTO 35020KT M04/M08 A3007 RMK AO1 PK WND
34034/0606 SLP215 T10441078 400331061





000
SAUS43 KUNR 260602 COR
MTRD07
METAR KD07 260556Z AUTO 34025G31KT M04/M07 A3002 RMK AO1 PK WND
34035/0513 SLP198 T10391067 10022 21039 53053





000
SAUS43 KUNR 260600 COR
MTRD07
METAR KD07 260556Z AUTO 34025G31KT M04/M07 A3002 RMK AO1 PK WND
34035/0513 SLP198 T10391067 10022 21039 53053





000
SAUS43 KUNR 260558
MTRD07
METAR KD07 260556Z AUTO 34025G31KT M04/M07 A3002 RMK AO1 PK WND
34035/0513 SLP198 T10391067 10022 21039 53053





000
SAUS43 KUNR 260557
MTR2WX
METAR K2WX 260556Z AUTO 34013KT M04/M07 A3004 RMK AO1 SLP207
T10391067 10017 21044 51058





000
SAUS43 KUNR 260502 COR
MTRD07
METAR KD07 260456Z AUTO 35021G36KT M02/M06 A2996 RMK AO1 PK WND
34039/0426 PRESRR SLP175 T10221061





000
SAUS43 KUNR 260459 COR
MTRD07
METAR KD07 260456Z AUTO 35021G36KT M02/M06 A2996 RMK AO1 PK WND
34039/0426 PRESRR SLP175 T10221061





000
SAUS43 KUNR 260457
MTRD07
METAR KD07 260456Z AUTO 35021G36KT M02/M06 A2996 RMK AO1 PK WND
34039/0426 PRESRR SLP175 T10221061





000
SAUS43 KUNR 260457
MTR2WX
METAR K2WX 260456Z AUTO 34019G27KT M04/M07 A3000 RMK AO1 PK WND
35029/0403 SLP193 T10391067





000
SAUS43 KUNR 260357
MTRD07
METAR KD07 260356Z AUTO 33028G36KT 00/M04 A2988 RMK AO1 PK WND
32039/0342 SLP148 T00001039





000
SAUS43 KUNR 260357
MTR2WX
METAR K2WX 260356Z AUTO 34022G31KT M03/M06 A2992 RMK AO1 PK WND
33037/0312 PRESRR SLP166 T10331061





000
SAUS43 KUNR 260357
MTR2WX
METAR K2WX 260356Z AUTO 34022G31KT M03/M06 A2992 RMK AO1 PK WND
33037/0312 PRESRR SLP166 T10331061





000
SAUS43 KUNR 260357
MTRD07
METAR KD07 260356Z AUTO 33028G36KT 00/M04 A2988 RMK AO1 PK WND
32039/0342 SLP148 T00001039





000
SAUS43 KUNR 260257
MTRD07
METAR KD07 260256Z AUTO 32025G35KT 01/M04 A2985 RMK AO1 PK WND
31035/0251 SLP138 T00111039 53020





000
SAUS43 KUNR 260257
MTR2WX
METAR K2WX 260256Z AUTO 32029G39KT M01/M04 A2985 RMK AO1 PK WND
32042/0203 SLP138 T10061044 53031





000
SAUS43 KUNR 260158
MTR2WX
METAR K2WX 260156Z AUTO 32030G40KT 01/M03 A2980 RMK AO1 PK WND
31040/0151 SLP119 T00061033





000
SAUS43 KUNR 260157
MTRD07
METAR KD07 260156Z AUTO 30019G26KT 02/M03 A2981 RMK AO1 PK WND
31030/0146 SLP126 T00171033





000
SAUS43 KUNR 260102 COR
MTR2WX
METAR K2WX 260056Z AUTO 31022G34KT 01/M02 A2978 RMK AO1 PK WND
32043/0015 SLP113 T00061022





000
SAUS43 KUNR 260058 COR
MTR2WX
METAR K2WX 260056Z AUTO 31022G34KT 01/M02 A2978 RMK AO1 PK WND
32043/0015 SLP113 T00061022





000
SAUS43 KUNR 260057
MTRD07
METAR KD07 260056Z AUTO 30016KT 01/M04 A2980 RMK AO1 PK WND
31029/0022 SLP125 T00111039





000
SAUS43 KUNR 252357
MTR2WX
METAR K2WX 252356Z AUTO 30019KT 02/M03 A2975 RMK AO1 PK WND
31033/2307 SLP101 60001 T00171028 10039 20006 52027





000
SAUS43 KUNR 252357
MTRD07
METAR KD07 252356Z AUTO 30013KT 02/M02 A2978 RMK AO1 SLP116 60003
T00221017 10033 20000 51021





000
SAUS43 KUNR 252257
MTR2WX
METAR K2WX 252256Z AUTO 31022G30KT 02/M02 A2973 RMK AO1 PK WND
30031/2203 SLP094 T00221022





000
SAUS43 KUNR 252257
MTRD07
METAR KD07 252256Z AUTO 31016G24KT 03/M01 A2976 RMK AO1 PK WND
32027/2241 SLP108 T00281011





000
SAUS43 KUNR 252158
MTRD07
METAR KD07 252156Z AUTO 31015G21KT 03/M01 A2974 RMK AO1 SLP101
T00281006





000
SAUS43 KUNR 252158
MTRD07
METAR KD07 252156Z AUTO 31015G21KT 03/M01 A2974 RMK AO1 SLP101
T00281006





000
SAUS43 KUNR 252157
MTR2WX
METAR K2WX 252156Z AUTO 29022G30KT 03/M01 A2969 RMK AO1 PK WND
31035/2115 SLP082 T00331011





000
SAUS43 KUNR 252157
MTR2WX
METAR K2WX 252156Z AUTO 29022G30KT 03/M01 A2969 RMK AO1 PK WND
31035/2115 SLP082 T00331011





000
SAUS43 KUNR 252057
MTR2WX
METAR K2WX 252056Z AUTO 31028G35KT 03/M01 A2967 RMK AO1 PK WND
30035/2049 SLP073 60001 T00331006 53000





000
SAUS43 KUNR 252057
MTRD07
METAR KD07 252056Z AUTO 30019G23KT 03/01 A2972 RMK AO1 SLP092 60003
T00330006 56011





000
SAUS43 KUNR 252002 COR
MTR2WX
METAR K2WX 251956Z AUTO 30025G32KT 03/00 A2966 RMK AO1 PK WND
30034/1926 SLP071 T00280000





000
SAUS43 KUNR 251958 COR
MTR2WX
METAR K2WX 251956Z AUTO 30025G32KT 03/00 A2966 RMK AO1 PK WND
30034/1926 SLP071 T00280000





000
SAUS43 KUNR 251957
MTRD07
METAR KD07 251956Z AUTO 24012KT 01/M01 A2972 RMK AO1 SLP096 P0003
T00061011





000
SAUS43 KUNR 251858
MTR2WX
METAR K2WX 251856Z AUTO 29020KT 02/M01 A2966 RMK AO1 SLP072 P0001
T00221006





000
SAUS43 KUNR 251857
MTRD07
METAR KD07 251856Z AUTO 24017KT 02/M02 A2973 RMK AO1 SLP098
T00171022





000
SAUS43 KUNR 251802 COR
MTR2WX
METAR K2WX 251756Z AUTO 25016KT 01/M01 A2966 RMK AO1 SLP077 P0002
60007 T00061011 10006 21011 56012





000
SAUS43 KUNR 251758
MTR2WX
METAR K2WX 251756Z AUTO 25016KT 01/M01 A2966 RMK AO1 SLP077 P0002
60007 T00061011 10006 21011 56012





000
SAUS43 KUNR 251758 COR
MTR2WX
METAR K2WX 251756Z AUTO 25016KT 01/M01 A2966 RMK AO1 SLP077 P0002
60007 T00061011 10006 21011 56012





000
SAUS43 KUNR 251757
MTRD07
METAR KD07 251756Z AUTO 22007KT 01/M03 A2975 RMK AO1 SLP104
T00111033 10017 21050 58024





000
SAUS43 KUNR 251658
MTR2WX
METAR K2WX 251656Z AUTO 22009KT M01/M02 A2967 RMK AO1 SLP083 P0004
T10061017





000
SAUS43 KUNR 251658
MTR2WX
METAR K2WX 251656Z AUTO 22009KT M01/M02 A2967 RMK AO1 SLP083 P0004
T10061017





000
SAUS43 KUNR 251657
MTRD07
METAR KD07 251656Z AUTO 21005KT 01/M04 A2978 RMK AO1 SLP115
T00111039





000
SAUS43 KUNR 251657
MTRD07
METAR KD07 251656Z AUTO 21005KT 01/M04 A2978 RMK AO1 SLP115
T00111039





000
SAUS43 KUNR 251558
MTR2WX
METAR K2WX 251556Z AUTO 21008KT M01/M02 A2969 RMK AO1 SLP087 P0001
T10061022





000
SAUS43 KUNR 251557
MTRD07
METAR KD07 251556Z AUTO 21006KT M02/M05 A2981 RMK AO1 SLP126
T10171050





000
SAUS43 KUNR 251458
MTR2WX
METAR K2WX 251456Z AUTO 27005KT 00/M06 A2970 RMK AO1 SLP088
T00001056 58018





000
SAUS43 KUNR 251457
MTRD07
METAR KD07 251456Z AUTO 19008KT M03/M06 A2983 RMK AO1 SLP136
T10281056 56016





000
SAUS43 KUNR 251358
MTR2WX
METAR K2WX 251356Z AUTO 20009KT 00/M05 A2972 RMK AO1 SLP096
T00001050





000
SAUS43 KUNR 251357
MTRD07
METAR KD07 251356Z AUTO 18009KT M03/M06 A2983 RMK AO1 SLP138
T10331061





000
SAUS43 KUNR 251257
MTRD07
METAR KD07 251256Z AUTO 19010KT M04/M07 A2986 RMK AO1 SLP153
T10441067





000
SAUS43 KUNR 251257
MTR2WX
METAR K2WX 251256Z AUTO 26007KT M01/M05 A2975 RMK AO1 SLP106
T10061050





000
SAUS43 KUNR 251158
MTR2WX
METAR K2WX 251156Z AUTO 24010KT M01/M05 A2976 RMK AO1 SLP107
T10061050 11006 21061 56031





000
SAUS43 KUNR 251157
MTRD07
METAR KD07 251156Z AUTO 18009KT M05/M07 A2988 RMK AO1 SLP159
T10501072 11017 21061 58029





000
SAUS43 KUNR 251057
MTRD07
METAR KD07 251056Z AUTO 19005KT M06/M08 A2992 RMK AO1 SLP169
T10561078





000
SAUS43 KUNR 251057
MTR2WX
METAR K2WX 251056Z AUTO 24006KT M03/M06 A2979 RMK AO1 SLP119
T10281056





000
SAUS43 KUNR 251057
MTRD07
METAR KD07 251056Z AUTO 19005KT M06/M08 A2992 RMK AO1 SLP169
T10561078





000
SAUS43 KUNR 251057
MTR2WX
METAR K2WX 251056Z AUTO 24006KT M03/M06 A2979 RMK AO1 SLP119
T10281056





000
SAUS43 KUNR 250958
MTR2WX
METAR K2WX 250956Z AUTO 23006KT M03/M07 A2982 RMK AO1 SLP129
T10331067





000
SAUS43 KUNR 250957
MTRD07
METAR KD07 250956Z AUTO 22004KT M05/M08 A2994 RMK AO1 SLP175
T10501078





000
SAUS43 KUNR 250858
MTR2WX
METAR K2WX 250856Z AUTO 24005KT M04/M07 A2986 RMK AO1 SLP143
T10391067 58018





000
SAUS43 KUNR 250857
MTRD07
METAR KD07 250856Z AUTO 25005KT M04/M07 A2997 RMK AO1 SLP186
T10441072 58011





000
SAUS43 KUNR 250757
MTRD07
METAR KD07 250756Z AUTO 26007KT M04/M07 A2999 RMK AO1 SLP192
T10441067





000
SAUS43 KUNR 250757
MTR2WX
METAR K2WX 250756Z AUTO 27006KT M04/M07 A2988 RMK AO1 SLP151
T10391072





000
SAUS43 KUNR 250658
MTR2WX
METAR K2WX 250656Z AUTO 26008KT M04/M07 A2991 RMK AO1 SLP163
T10441072 400171100





000
SAUS43 KUNR 250657
MTRD07
METAR KD07 250656Z AUTO 29008KT M03/M06 A3001 RMK AO1 SLP197
T10331056 400001094





000
SAUS43 KUNR 250558
MTR2WX
METAR K2WX 250556Z AUTO 24006KT M04/M07 A2992 RMK AO1 SLP168
T10441072 11006 21056 58007





000
SAUS43 KUNR 250557
MTRD07
METAR KD07 250556Z AUTO 29010KT M02/M05 A3001 RMK AO1 SLP196
T10221050 11017 21061 57001





000
SAUS43 KUNR 250457
MTR2WX
METAR K2WX 250456Z AUTO 26005KT M06/M07 A2993 RMK AO1 SLP176
T10561072





000
SAUS43 KUNR 250457
MTRD07
METAR KD07 250456Z AUTO 30012KT M03/M05 A3001 RMK AO1 SLP200
T10281050





000
SAUS43 KUNR 250357
MTR2WX
METAR K2WX 250356Z AUTO 29013KT M04/M06 A2994 RMK AO1 SLP179
T10391061





000
SAUS43 KUNR 250357
MTRD07
METAR KD07 250356Z AUTO 27010KT M02/M05 A3001 RMK AO1 SLP202
T10171050





000
SAUS43 KUNR 250357
MTR2WX
METAR K2WX 250356Z AUTO 29013KT M04/M06 A2994 RMK AO1 SLP179
T10391061





000
SAUS43 KUNR 250357
MTRD07
METAR KD07 250356Z AUTO 27010KT M02/M05 A3001 RMK AO1 SLP202
T10171050





000
SAUS43 KUNR 250258
MTRD07
METAR KD07 250256Z AUTO 28011KT M03/M06 A3001 RMK AO1 SLP205
T10331061 58002





000
SAUS43 KUNR 250257
MTR2WX
METAR K2WX 250256Z AUTO 30013KT M03/M05 A2994 RMK AO1 SLP179
T10281050 56006





000
SAUS43 KUNR 250158
MTRD07
METAR KD07 250156Z AUTO 28013KT M04/M08 A3001 RMK AO1 SLP209
T10391078





000
SAUS43 KUNR 250157
MTR2WX
METAR K2WX 250156Z AUTO 29013KT M04/M06 A2994 RMK AO1 SLP183
T10441061





000
SAUS43 KUNR 250058
MTR2WX
METAR K2WX 250056Z AUTO 26009KT M03/M06 A2995 RMK AO1 SLP188
T10331056





000
SAUS43 KUNR 250058
MTRD07
METAR KD07 250056Z AUTO 29007KT M06/M10 A3002 RMK AO1 SLP214
T10611100





000
SAUS43 KUNR 242358
MTR2WX
METAR K2WX 242356Z AUTO 30013KT M01/M04 A2996 RMK AO1 SLP187
T10061039 10017 21017 51020





000
SAUS43 KUNR 242357
MTRD07
METAR KD07 242356Z AUTO 35006KT M05/M09 A3001 RMK AO1 SLP210
T10501094 10000 21050 51021





000
SAUS43 KUNR 242258
MTR2WX
METAR K2WX 242256Z AUTO 31016KT 00/M05 A2994 RMK AO1 PK WND
31028/2215 SLP183 T00001050





000
SAUS43 KUNR 242258
MTRD07
METAR KD07 242256Z AUTO 33013KT M02/M09 A3000 RMK AO1 PK WND
31026/2230 SLP201 T10221089





000
SAUS43 KUNR 242157
MTR2WX
METAR K2WX 242156Z AUTO 31020KT 01/M06 A2993 RMK AO1 PK WND
30030/2101 SLP174 T00111056





000
SAUS43 KUNR 242157
MTRD07
METAR KD07 242156Z AUTO 33020G25KT M01/M09 A2997 RMK AO1 SLP188
T10111094





000
SAUS43 KUNR 242102 COR
MTR2WX
METAR K2WX 242056Z AUTO 31026G30KT 01/M07 A2990 RMK AO1 PK WND
31030/2055 SLP163 T00111067 51019





000
SAUS43 KUNR 242058 COR
MTR2WX
METAR K2WX 242056Z AUTO 31026G30KT 01/M07 A2990 RMK AO1 PK WND
31030/2055 SLP163 T00111067 51019





000
SAUS43 KUNR 242057
MTRD07
METAR KD07 242056Z AUTO 34013KT M01/M09 A2995 RMK AO1 SLP181
T10111094 53016





000
SAUS43 KUNR 242057
MTR2WX
METAR K2WX 242056Z AUTO 31026G30KT 01/M07 A2990 RMK AO1 PK WND
31030/2055 SLP163 T00111067 51019





000
SAUS43 KUNR 241957
MTR2WX
METAR K2WX 241956Z AUTO 31020G24KT 01/M06 A2988 RMK AO1 SLP156
T00111061





000
SAUS43 KUNR 241957
MTRD07
METAR KD07 241956Z AUTO 34017KT M01/M09 A2992 RMK AO1 SLP171
T10061094





000
SAUS43 KUNR 241857
MTRD07
METAR KD07 241856Z AUTO 32013KT M02/M09 A2990 RMK AO1 SLP163
T10171094





000
SAUS43 KUNR 241857
MTR2WX
METAR K2WX 241856Z AUTO 31016KT 00/M07 A2986 RMK AO1 SLP150
T00001067





000
SAUS43 KUNR 241803 COR
MTR2WX
METAR K2WX 241756Z AUTO 33018KT M01/M07 A2983 RMK AO1 SLP143
T10111067 11011 21100 51023





000
SAUS43 KUNR 241759 COR
MTR2WX
METAR K2WX 241756Z AUTO 33018KT M01/M07 A2983 RMK AO1 SLP143
T10111067 11011 21100 51023





000
SAUS43 KUNR 241758
MTRD07
METAR KD07 241756Z AUTO 33012KT M03/M09 A2990 RMK AO1 SLP162
T10281094 11028 21094 51023





000
SAUS43 KUNR 241658
MTRD07
METAR KD07 241656Z AUTO 33014KT M05/M09 A2988 RMK AO1 SLP160
T10501094





000
SAUS43 KUNR 241658
MTR2WX
METAR K2WX 241656Z AUTO 32014KT M03/M07 A2982 RMK AO1 SLP139
T10331067





000
SAUS43 KUNR 241558
MTR2WX
METAR K2WX 241556Z AUTO 32009KT M04/M08 A2979 RMK AO1 SLP128
T10391078





000
SAUS43 KUNR 241557
MTRD07
METAR KD07 241556Z AUTO 34014KT M07/M10 A2985 RMK AO1 SLP151
T10721100





000
SAUS43 KUNR 241459
MTR2WX
METAR K2WX 241456Z AUTO 32014KT M05/M09 A2976 RMK AO1 SLP119
T10501089 53016





000
SAUS43 KUNR 241459
MTRD07
METAR KD07 241456Z AUTO 34017KT M08/M11 A2982 RMK AO1 SLP141
T10831111 53019





000
SAUS43 KUNR 241358
MTR2WX
METAR K2WX 241356Z AUTO 33012KT M06/M10 A2974 RMK AO1 SLP111
T10611100





000
SAUS43 KUNR 241357
MTRD07
METAR KD07 241356Z AUTO 33014KT M09/M12 A2979 RMK AO1 SLP132
T10941117





000
SAUS43 KUNR 241258
MTR2WX
METAR K2WX 241256Z AUTO 32004KT M08/M11 A2972 RMK AO1 SLP107
T10831111





000
SAUS43 KUNR 241257
MTRD07
METAR KD07 241256Z AUTO 32015KT M09/M11 A2978 RMK AO1 SLP127
T10891111





000
SAUS43 KUNR 241158
MTR2WX
METAR K2WX 241156Z AUTO 28004KT M08/M11 A2971 RMK AO1 SLP102
T10831111 11072 21100 53004





000
SAUS43 KUNR 241157
MTRD07
METAR KD07 241156Z AUTO 32015KT M09/M11 A2976 RMK AO1 SLP120
T10891111 11056 21089 53007





000
SAUS43 KUNR 241058
MTR2WX
METAR K2WX 241056Z AUTO 21004KT M10/M12 A2970 RMK AO1 SLP100
T11001117





000
SAUS43 KUNR 241057
MTRD07
METAR KD07 241056Z AUTO 31013KT M08/M11 A2975 RMK AO1 SLP113
T10831106





000
SAUS43 KUNR 240957
MTR2WX
METAR K2WX 240956Z AUTO 32004KT M09/M11 A2969 RMK AO1 SLP093
T10891111





000
SAUS43 KUNR 240957
MTRD07
METAR KD07 240956Z AUTO 31018KT M07/M10 A2973 RMK AO1 SLP106
T10721100





000
SAUS43 KUNR 240857
MTRD07
METAR KD07 240856Z AUTO 31015KT M08/M10 A2974 RMK AO1 SLP108
T10781100 53008





000
SAUS43 KUNR 240857
MTR2WX
METAR K2WX 240856Z AUTO 32008KT M09/M11 A2969 RMK AO1 SLP092
T10891111 51005





000
SAUS43 KUNR 240757
MTRD07
METAR KD07 240756Z AUTO 31014KT M07/M10 A2973 RMK AO1 SLP103
T10721100





000
SAUS43 KUNR 240757
MTR2WX
METAR K2WX 240756Z AUTO 34005KT M08/M11 A2969 RMK AO1 SLP088
T10781106





000
SAUS43 KUNR 240657
MTRD07
METAR KD07 240656Z AUTO 32015KT M07/M09 A2971 RMK AO1 SLP094
T10671094 400441067





000
SAUS43 KUNR 240657
MTR2WX
METAR K2WX 240656Z AUTO 32009KT M08/M10 A2968 RMK AO1 SLP087
T10781100 400391078





000
SAUS43 KUNR 240602 COR
MTRD07
METAR KD07 240556Z AUTO 33019G24KT M06/M09 A2971 RMK AO1 PK WND
34028/0457 SLP092 T10561094 11022 21056 51005





000
SAUS43 KUNR 240600 COR
MTRD07
METAR KD07 240556Z AUTO 33019G24KT M06/M09 A2971 RMK AO1 PK WND
34028/0457 SLP092 T10561094 11022 21056 51005





000
SAUS43 KUNR 240557
MTR2WX
METAR K2WX 240556Z AUTO 31013KT M08/M10 A2967 RMK AO1 SLP085
T10781100 11033 21078 50001





000
SAUS43 KUNR 240557
MTRD07
METAR KD07 240556Z AUTO 33019G24KT M06/M09 A2971 RMK AO1 PK WND
34028/0457 SLP092 T10561094 11022 21056 51005





000
SAUS43 KUNR 240458
MTR2WX
METAR K2WX 240456Z AUTO 29013KT M07/M09 A2969 RMK AO1 PK WND
30027/0404 SLP085 T10671094





000
SAUS43 KUNR 240457
MTRD07
METAR KD07 240456Z AUTO 33020KT M06/M09 A2971 RMK AO1 PK WND
33031/0429 SLP092 T10561094





000
SAUS43 KUNR 240357
MTR2WX
METAR K2WX 240356Z AUTO 31019G28KT M05/M08 A2967 RMK AO1 PK WND
31030/0341 SLP076 T10501083





000
SAUS43 KUNR 240357
MTRD07
METAR KD07 240356Z AUTO 34014G22KT M05/M09 A2971 RMK AO1 SLP091
T10501089





000
SAUS43 KUNR 240302 COR
MTR2WX
METAR K2WX 240256Z AUTO 31022G27KT M05/M08 A2967 RMK AO1 PK WND
32030/0229 SLP079 T10501078 50002





000
SAUS43 KUNR 240302 COR
MTRD07
METAR KD07 240256Z AUTO 34015KT M04/M09 A2970 RMK AO1 PK WND
32028/0200 SLP087 T10441089 51008





000
SAUS43 KUNR 240259 COR
MTRD07
METAR KD07 240256Z AUTO 34015KT M04/M09 A2970 RMK AO1 PK WND
32028/0200 SLP087 T10441089 51008





000
SAUS43 KUNR 240258 COR
MTR2WX
METAR K2WX 240256Z AUTO 31022G27KT M05/M08 A2967 RMK AO1 PK WND
32030/0229 SLP079 T10501078 50002





000
SAUS43 KUNR 240258
MTRD07
METAR KD07 240256Z AUTO 34015KT M04/M09 A2970 RMK AO1 PK WND
32028/0200 SLP087 T10441089 51008





000
SAUS43 KUNR 240158
MTR2WX
METAR K2WX 240156Z AUTO 32018KT M04/M08 A2967 RMK AO1 PK WND
31030/0107 SLP079 T10441078





000
SAUS43 KUNR 240158
MTR2WX
METAR K2WX 240156Z AUTO 32018KT M04/M08 A2967 RMK AO1 PK WND
31030/0107 SLP079 T10441078





000
SAUS43 KUNR 240157
MTRD07
METAR KD07 240156Z AUTO 33019G26KT M03/M08 A2969 RMK AO1 PK WND
32030/0057 SLP086 T10331083





000
SAUS43 KUNR 240157
MTRD07
METAR KD07 240156Z AUTO 33019G26KT M03/M08 A2969 RMK AO1 PK WND
32030/0057 SLP086 T10331083





000
SAUS43 KUNR 240058
MTRD07
METAR KD07 240056Z AUTO 32025G32KT M03/M09 A2969 RMK AO1 PK WND
32040/0001 SLP084 T10331089





000
SAUS43 KUNR 240057
MTR2WX
METAR K2WX 240056Z AUTO 32022KT M03/M07 A2966 RMK AO1 PK WND
31030/0009 SLP074 T10331072





000
SAUS43 KUNR 240002 COR
MTRD07
METAR KD07 232356Z AUTO 32028G37KT M02/M08 A2967 RMK AO1 PK WND
32039/2342 SLP077 T10221083 10033 21022 50010





000
SAUS43 KUNR 232359 COR
MTRD07
METAR KD07 232356Z AUTO 32028G37KT M02/M08 A2967 RMK AO1 PK WND
32039/2342 SLP077 T10221083 10033 21022 50010





000
SAUS43 KUNR 232357
MTR2WX
METAR K2WX 232356Z AUTO 31019G28KT M03/M07 A2967 RMK AO1 PK WND
31032/2303 SLP074 T10331072 10022 21033 51018





000
SAUS43 KUNR 232357
MTRD07
METAR KD07 232356Z AUTO 32028G37KT M02/M08 A2967 RMK AO1 PK WND
32039/2342 SLP077 T10221083 10033 21022 50010





000
SAUS43 KUNR 232258
MTR2WX
METAR K2WX 232256Z AUTO 32024G32KT M02/M07 A2966 RMK AO1 PK WND
32035/2201 SLP069 T10171072





000
SAUS43 KUNR 232257
MTRD07
METAR KD07 232256Z AUTO 32020G26KT M02/M08 A2968 RMK AO1 PK WND
32037/2202 SLP080 T10171078





000
SAUS43 KUNR 232157
MTRD07
METAR KD07 232156Z AUTO 32027G38KT M01/M08 A2966 RMK AO1 PK WND
31041/2059 SLP070 T10061078





000
SAUS43 KUNR 232157
MTR2WX
METAR K2WX 232156Z AUTO 32027G35KT M01/M07 A2963 RMK AO1 PK WND
31047/2123 SLP058 T10061072





000
SAUS43 KUNR 232157
MTR2WX
METAR K2WX 232156Z AUTO 32027G35KT M01/M07 A2963 RMK AO1 PK WND
31047/2123 SLP058 T10061072





000
SAUS43 KUNR 232157
MTRD07
METAR KD07 232156Z AUTO 32027G38KT M01/M08 A2966 RMK AO1 PK WND
31041/2059 SLP070 T10061078





000
SAUS43 KUNR 232058
MTR2WX
METAR K2WX 232056Z AUTO 32030G42KT 01/M07 A2961 RMK AO1 PK WND
30048/2011 SLP049 T00111067 53002





000
SAUS43 KUNR 232057
MTRD07
METAR KD07 232056Z AUTO 32029G39KT 00/M07 A2964 RMK AO1 PK WND
31040/2034 SLP061 T00001067 53006





000
SAUS43 KUNR 231957
MTR2WX
METAR K2WX 231956Z AUTO 30039G50KT 02/M07 A2959 RMK AO1 PK WND
31054/1911 SLP040 T00221067





000
SAUS43 KUNR 231957
MTRD07
METAR KD07 231956Z AUTO 32030G42KT 01/M06 A2962 RMK AO1 PK WND
31045/1918 SLP054 T00061061





000
SAUS43 KUNR 231957
MTR2WX
METAR K2WX 231956Z AUTO 30039G50KT 02/M07 A2959 RMK AO1 PK WND
31054/1911 SLP040 T00221067





000
SAUS43 KUNR 231957
MTRD07
METAR KD07 231956Z AUTO 32030G42KT 01/M06 A2962 RMK AO1 PK WND
31045/1918 SLP054 T00061061





000
SAUS43 KUNR 231858
MTRD07
METAR KD07 231856Z AUTO 30037G46KT 03/M05 A2962 RMK AO1 PK WND
30046/1856 SLP050 T00281050





000
SAUS43 KUNR 231857
MTR2WX
METAR K2WX 231856Z AUTO 30039G51KT 01/M07 A2959 RMK AO1 PK WND
31051/1843 SLP039 T00061072





000
SAUS43 KUNR 231801 COR
MTRD07
METAR KD07 231756Z AUTO 32025G40KT 03/M04 A2962 RMK AO1 PK WND
31040/1749 SLP048 T00331044 10039 20006 51008





000
SAUS43 KUNR 231759 COR
MTRD07
METAR KD07 231756Z AUTO 32025G40KT 03/M04 A2962 RMK AO1 PK WND
31040/1749 SLP048 T00331044 10039 20006 51008





000
SAUS43 KUNR 231757
MTRD07
METAR KD07 231756Z AUTO 32025G40KT 03/M04 A2962 RMK AO1 PK WND
31040/1749 SLP048 T00331044 10039 20006 51008





000
SAUS43 KUNR 231757
MTR2WX
METAR K2WX 231756Z AUTO 31028G39KT 01/M05 A2960 RMK AO1 PK WND
31045/1707 SLP044 T00061050 10028 20006 53015





000
SAUS43 KUNR 231657
MTR2WX
METAR K2WX 231656Z AUTO 31035G43KT 03/M05 A2959 RMK AO1 PK WND
30047/1636 SLP037 T00281050





000
SAUS43 KUNR 231657
MTRD07
METAR KD07 231656Z AUTO 30028G36KT 03/M04 A2962 RMK AO1 PK WND
30041/1603 SLP050 T00331044





000
SAUS43 KUNR 231602 COR
MTR2WX
METAR K2WX 231556Z AUTO 30033G47KT 02/M05 A2957 RMK AO1 PK WND
30047/1550 SLP030 T00221050





000
SAUS43 KUNR 231602 COR
MTR2WX
METAR K2WX 231556Z AUTO 30033G47KT 02/M05 A2957 RMK AO1 PK WND
30047/1550 SLP030 T00221050





000
SAUS43 KUNR 231558 COR
MTR2WX
METAR K2WX 231556Z AUTO 30033G47KT 02/M05 A2957 RMK AO1 PK WND
30047/1550 SLP030 T00221050





000
SAUS43 KUNR 231557
MTRD07
METAR KD07 231556Z AUTO 29027G36KT 03/M03 A2961 RMK AO1 PK WND
29036/1548 SLP046 T00331033





000
SAUS43 KUNR 231458
MTR2WX
METAR K2WX 231456Z AUTO 29023G30KT 02/M04 A2956 RMK AO1 PK WND
29037/1423 SLP025 T00171044 51016





000
SAUS43 KUNR 231458
MTRD07
METAR KD07 231456Z AUTO 29024G30KT 02/M03 A2959 RMK AO1 PK WND
29030/1455 SLP040 T00221033 53011





000
SAUS43 KUNR 231357
MTRD07
METAR KD07 231356Z AUTO 29019G27KT 01/M04 A2958 RMK AO1 PK WND
28028/1337 SLP036 T00111039





000
SAUS43 KUNR 231357
MTR2WX
METAR K2WX 231356Z AUTO 29026G37KT 02/M04 A2955 RMK AO1 PK WND
29040/1309 SLP024 T00171039





000
SAUS43 KUNR 231302 COR
MTR2WX
METAR K2WX 231256Z AUTO 28023KT 02/M04 A2952 RMK AO1 PK WND
28033/1237 SLP015 T00171039





000
SAUS43 KUNR 231259 COR
MTR2WX
METAR K2WX 231256Z AUTO 28023KT 02/M04 A2952 RMK AO1 PK WND
28033/1237 SLP015 T00171039





000
SAUS43 KUNR 231257
MTRD07
METAR KD07 231256Z AUTO 29015KT 01/M03 A2958 RMK AO1 SLP035
T00111028





000
SAUS43 KUNR 231158
MTR2WX
METAR K2WX 231156Z AUTO 29026G34KT 02/M04 A2951 RMK AO1 PK WND
28042/1114 SLP005 T00221039 10044 20017 53008





000
SAUS43 KUNR 231157
MTRD07
METAR KD07 231156Z AUTO 28016G21KT 01/M02 A2956 RMK AO1 SLP028 60002
70008 T00111022 10044 20006 51014





000
SAUS43 KUNR 231058
MTR2WX
METAR K2WX 231056Z AUTO 29028G36KT 02/M03 A2947 RMK AO1 PK WND
29039/1000 SLP991 T00221033





000
SAUS43 KUNR 231057
MTRD07
METAR KD07 231056Z AUTO 29016KT 02/M02 A2955 RMK AO1 PK WND
29026/1039 SLP025 T00171022





000
SAUS43 KUNR 230958
MTR2WX
METAR K2WX 230956Z AUTO 28025G36KT 02/M02 A2948 RMK AO1 PK WND
29037/0911 SLP995 T00221022





000
SAUS43 KUNR 230958
MTR2WX
METAR K2WX 230956Z AUTO 28025G36KT 02/M02 A2948 RMK AO1 PK WND
29037/0911 SLP995 T00221022





000
SAUS43 KUNR 230957
MTRD07
METAR KD07 230956Z AUTO 29016G24KT 03/M02 A2954 RMK AO1 SLP018
T00281022





000
SAUS43 KUNR 230957
MTRD07
METAR KD07 230956Z AUTO 29016G24KT 03/M02 A2954 RMK AO1 SLP018
T00281022





000
SAUS43 KUNR 230858
MTR2WX
METAR K2WX 230856Z AUTO 29026G38KT 02/M02 A2948 RMK AO1 PK WND
28038/0854 SLP993 T00221017 53023





000
SAUS43 KUNR 230858
MTRD07
METAR KD07 230856Z AUTO 28012KT 03/M01 A2952 RMK AO1 SLP008 60002
T00281006 53012





000
SAUS43 KUNR 230758
MTR2WX
METAR K2WX 230756Z AUTO 28020KT 03/M04 A2945 RMK AO1 PK WND
29030/0721 SLP982 T00281039





000
SAUS43 KUNR 230757
MTRD07
METAR KD07 230756Z AUTO 32008KT 03/01 A2950 RMK AO1 PK WND
30029/0717 SLP006 P0001 T00330006





    US Dept of Commerce
    National Oceanic and Atmospheric Administration
    National Weather Service
    1325 East West Highway
    Silver Spring, MD 20910
    Page Author: NWS Internet Services Team
Disclaimer
Information Quality
Credits
Glossary
Privacy Policy
Freedom of Information Act (FOIA)
About Us
Career Opportunities